Time;durP1;ratioP1;P1;durP2;ratioP2;P2;SDS_P1;SDS_P2;PMS_P1;PMS_P2;Temp;Humidity;BMP_temperature;BMP_pressure;BME280_temperature;BME280_humidity;BME280_pressure;Samples;Min_cycle;Max_cycle;Signal;HPM_P1;HPM_P2
2021/08/24 00:17:09;;;;;;;9.45;5.57;;;;;;;;;;4857842;28;20255;-74
2021/08/24 00:19:35;;;;;;;6.47;4.28;;;;;;;;;;4227925;33;20544;-74
2021/08/24 00:22:01;;;;;;;9.77;5.32;;;;;;;;;;4206052;34;20117;-74
2021/08/24 00:24:27;;;;;;;5.05;3.58;;;;;;;;;;4205626;34;20137;-73
2021/08/24 00:26:52;;;;;;;10.68;5.10;;;;;;;;;;4189919;33;20252;-74
2021/08/24 00:29:18;;;;;;;6.80;4.55;;;;;;;;;;4206823;34;20141;-73
2021/08/24 00:31:44;;;;;;;9.30;4.45;;;;;;;;;;4194947;33;20098;-74
2021/08/24 00:34:10;;;;;;;10.88;4.78;;;;;;;;;;4204468;34;20114;-74
2021/08/24 00:36:36;;;;;;;8.40;4.75;;;;;;;;;;4198900;34;20207;-74
2021/08/24 00:39:02;;;;;;;6.35;4.37;;;;;;;;;;4206360;34;20131;-74
2021/08/24 00:41:28;;;;;;;9.40;4.50;;;;;;;;;;4217989;34;20535;-74
2021/08/24 00:43:54;;;;;;;9.07;4.60;;;;;;;;;;4206819;34;20220;-74
2021/08/24 00:46:42;;;;;;;7.40;4.37;;;;;;;;;;4219309;34;20235;-67
2021/08/24 00:49:12;;;;;;;8.68;4.97;;;;;;;;;;4217854;34;20577;-66
2021/08/24 00:51:38;;;;;;;6.00;4.20;;;;;;;;;;4215518;34;20506;-66
2021/08/24 00:54:07;;;;;;;6.87;4.43;;;;;;;;;;4192706;34;20117;-66
2021/08/24 00:56:33;;;;;;;8.30;4.40;;;;;;;;;;4181272;34;20126;-66
2021/08/24 00:58:59;;;;;;;14.85;4.78;;;;;;;;;;4205560;34;20110;-65
2021/08/24 01:01:25;;;;;;;9.68;4.57;;;;;;;;;;4205305;34;20109;-66
2021/08/24 01:03:51;;;;;;;11.45;4.78;;;;;;;;;;4205264;34;20124;-66
2021/08/24 01:06:22;;;;;;;19.37;4.68;;;;;;;;;;4204287;34;20126;-66
2021/08/24 01:09:26;;;;;;;16.80;5.25;;;;;;;;;;4205150;34;20129;-65
2021/08/24 01:12:30;;;;;;;8.52;4.35;;;;;;;;;;4169690;34;20467;-65
2021/08/24 01:15:25;;;;;;;14.23;4.32;;;;;;;;;;4205206;34;20105;-66
2021/08/24 01:18:07;;;;;;;11.32;4.65;;;;;;;;;;4191393;33;20105;-65
2021/08/24 01:20:42;;;;;;;8.57;4.53;;;;;;;;;;4220363;33;20532;-66
2021/08/24 01:23:48;;;;;;;6.72;4.65;;;;;;;;;;4207639;33;20091;-66
2021/08/24 01:26:23;;;;;;;10.85;4.55;;;;;;;;;;4212124;33;20205;-65
2021/08/24 01:29:17;;;;;;;10.27;4.57;;;;;;;;;;4232731;33;20395;-66
2021/08/24 01:31:59;;;;;;;7.40;4.78;;;;;;;;;;4220324;33;20140;-64
2021/08/24 01:34:43;;;;;;;9.52;4.07;;;;;;;;;;4233085;33;20093;-66
2021/08/24 01:37:29;;;;;;;9.65;5.37;;;;;;;;;;4208235;33;20471;-66
2021/08/24 01:40:01;;;;;;;7.72;4.28;;;;;;;;;;4221132;33;20184;-65
2021/08/24 01:42:27;;;;;;;7.12;5.32;;;;;;;;;;4232718;33;20510;-66
2021/08/24 01:45:03;;;;;;;6.25;4.75;;;;;;;;;;4219751;33;20212;-66
2021/08/24 01:47:44;;;;;;;11.30;4.72;;;;;;;;;;4232790;33;20096;-66
2021/08/24 01:50:19;;;;;;;11.73;5.75;;;;;;;;;;4219690;33;20223;-66
2021/08/24 01:52:56;;;;;;;;;;;;;;;;;;4211026;34;20100;-66
2021/08/24 01:55:27;;;;;;;9.35;4.80;;;;;;;;;;4205870;34;19964;-66
2021/08/24 01:57:58;;;;;;;12.15;4.00;;;;;;;;;;4205730;34;20196;-65
2021/08/24 02:00:24;;;;;;;15.45;5.25;;;;;;;;;;4205748;34;20534;-66
2021/08/24 02:03:11;;;;;;;7.68;3.95;;;;;;;;;;4218455;34;20109;-65
2021/08/24 02:05:45;;;;;;;10.82;4.68;;;;;;;;;;4218699;34;20110;-66
2021/08/24 02:08:30;;;;;;;6.60;4.40;;;;;;;;;;4206272;34;20113;-65
2021/08/24 02:10:57;;;;;;;9.50;4.53;;;;;;;;;;4218616;34;20109;-67
2021/08/24 02:13:23;;;;;;;8.02;4.28;;;;;;;;;;4205666;34;20120;-67
2021/08/24 02:15:53;;;;;;;11.25;5.12;;;;;;;;;;4194017;34;20233;-66
2021/08/24 02:18:21;;;;;;;12.90;4.97;;;;;;;;;;4194814;33;20121;-66
2021/08/24 02:20:56;;;;;;;8.40;4.80;;;;;;;;;;4208246;33;20199;-66
2021/08/24 02:23:23;;;;;;;8.13;4.57;;;;;;;;;;4232236;33;20125;-68
2021/08/24 02:25:52;;;;;;;7.82;4.97;;;;;;;;;;4208029;33;20189;-67
2021/08/24 02:28:39;;;;;;;15.55;6.07;;;;;;;;;;4208068;33;20291;-66
2021/08/24 02:31:11;;;;;;;5.87;4.35;;;;;;;;;;4232331;33;20122;-67
2021/08/24 02:33:44;;;;;;;10.00;5.12;;;;;;;;;;4219294;33;20525;-66
2021/08/24 02:36:11;;;;;;;11.75;5.43;;;;;;;;;;4208196;33;20122;-67
2021/08/24 02:38:37;;;;;;;11.25;5.28;;;;;;;;;;4207648;33;20121;-67
2021/08/24 02:41:24;;;;;;;10.32;5.22;;;;;;;;;;4209620;33;20117;-67
2021/08/24 02:43:56;;;;;;;14.23;5.10;;;;;;;;;;4211376;33;20543;-67
2021/08/24 02:46:32;;;;;;;9.10;4.43;;;;;;;;;;4210383;33;20116;-66
2021/08/24 02:49:08;;;;;;;10.65;5.15;;;;;;;;;;4210261;33;20468;-66
2021/08/24 02:51:33;;;;;;;;;;;;;;;;;;4210358;33;20528;-66
2021/08/24 02:54:25;;;;;;;12.48;5.35;;;;;;;;;;4221213;33;20091;-66
2021/08/24 02:56:51;;;;;;;14.02;4.87;;;;;;;;;;4221440;33;20105;-66
2021/08/24 02:59:17;;;;;;;10.02;5.07;;;;;;;;;;4234214;33;20584;-66
2021/08/24 03:01:43;;;;;;;10.13;5.30;;;;;;;;;;4223785;33;20129;-72
2021/08/24 03:04:09;;;;;;;17.58;5.45;;;;;;;;;;4219840;34;20140;-67
2021/08/24 03:06:42;;;;;;;10.35;6.03;;;;;;;;;;4219935;34;20565;-66
2021/08/24 03:09:09;;;;;;;7.78;4.55;;;;;;;;;;4207445;34;20197;-66
2021/08/24 03:11:41;;;;;;;6.53;4.65;;;;;;;;;;4218697;34;20201;-66
2021/08/24 03:14:13;;;;;;;16.42;5.50;;;;;;;;;;4207333;34;20102;-66
2021/08/24 03:16:42;;;;;;;10.27;4.82;;;;;;;;;;4206737;34;20125;-66
2021/08/24 03:19:12;;;;;;;9.05;4.55;;;;;;;;;;4212425;33;20136;-67
2021/08/24 03:21:38;;;;;;;8.93;4.90;;;;;;;;;;4209937;33;20110;-67
2021/08/24 03:24:07;;;;;;;7.32;4.85;;;;;;;;;;4216744;33;20136;-66
2021/08/24 03:26:35;;;;;;;12.80;4.85;;;;;;;;;;4196097;34;20434;-66
2021/08/24 03:29:13;;;;;;;10.43;4.60;;;;;;;;;;4220150;34;20113;-67
2021/08/24 03:31:39;;;;;;;8.30;5.65;;;;;;;;;;4207485;34;20218;-66
2021/08/24 03:34:05;;;;;;;15.80;5.37;;;;;;;;;;4218149;34;20160;-66
2021/08/24 03:36:30;;;;;;;10.07;5.03;;;;;;;;;;4217014;34;20117;-66
2021/08/24 03:38:56;;;;;;;8.05;5.18;;;;;;;;;;4217062;34;20406;-66
2021/08/24 03:41:22;;;;;;;14.48;5.72;;;;;;;;;;4218301;34;20113;-66
2021/08/24 03:43:48;;;;;;;8.90;5.37;;;;;;;;;;4218825;34;20097;-66
2021/08/24 03:46:14;;;;;;;10.63;5.35;;;;;;;;;;4219904;34;20139;-66
2021/08/24 03:48:40;;;;;;;9.18;5.20;;;;;;;;;;4219921;34;20121;-66
2021/08/24 03:51:06;;;;;;;8.65;4.43;;;;;;;;;;4219759;34;20224;-66
2021/08/24 03:53:34;;;;;;;14.05;5.50;;;;;;;;;;4219794;34;20129;-66
2021/08/24 03:56:00;;;;;;;14.85;5.72;;;;;;;;;;4219792;34;20123;-65
2021/08/24 03:58:26;;;;;;;8.88;5.30;;;;;;;;;;4219801;34;20129;-66
2021/08/24 04:00:53;;;;;;;9.65;5.35;;;;;;;;;;4206695;34;20160;-65
2021/08/24 04:03:19;;;;;;;8.88;5.30;;;;;;;;;;4219615;34;20125;-65
2021/08/24 04:05:45;;;;;;;9.77;5.15;;;;;;;;;;4219682;34;20607;-65
2021/08/24 04:08:11;;;;;;;8.05;5.10;;;;;;;;;;4219470;34;20144;-66
2021/08/24 04:10:37;;;;;;;13.25;5.93;;;;;;;;;;4219876;34;20144;-65
2021/08/24 04:13:03;;;;;;;9.60;5.20;;;;;;;;;;4219634;34;20172;-65
2021/08/24 04:15:29;;;;;;;13.30;5.82;;;;;;;;;;4219784;34;20549;-66
2021/08/24 04:17:54;;;;;;;7.97;4.93;;;;;;;;;;4219692;34;20114;-65
2021/08/24 04:20:20;;;;;;;9.43;5.87;;;;;;;;;;4232106;33;20117;-65
2021/08/24 04:22:48;;;;;;;12.55;5.45;;;;;;;;;;4233528;33;20125;-65
2021/08/24 04:25:14;;;;;;;8.60;4.18;;;;;;;;;;4220702;33;20123;-66
2021/08/24 04:27:40;;;;;;;9.73;5.75;;;;;;;;;;4227464;33;20293;-65
2021/08/24 04:30:06;;;;;;;8.80;4.95;;;;;;;;;;4219076;33;20156;-65
2021/08/24 04:32:33;;;;;;;11.45;5.80;;;;;;;;;;4219199;33;20124;-65
2021/08/24 04:34:59;;;;;;;10.07;5.03;;;;;;;;;;4194925;34;20113;-69
2021/08/24 04:37:27;;;;;;;8.52;5.00;;;;;;;;;;4206334;33;20124;-69
2021/08/24 04:39:53;;;;;;;8.75;5.30;;;;;;;;;;4219606;34;20482;-69
2021/08/24 04:42:19;;;;;;;7.68;5.85;;;;;;;;;;4206421;33;20128;-70
2021/08/24 04:44:45;;;;;;;10.32;4.00;;;;;;;;;;4219345;34;20536;-69
2021/08/24 04:47:11;;;;;;;13.77;5.65;;;;;;;;;;4218758;33;20129;-69
2021/08/24 04:49:37;;;;;;;8.07;5.28;;;;;;;;;;4206684;34;20160;-70
2021/08/24 04:52:03;;;;;;;7.07;4.85;;;;;;;;;;4219301;33;20465;-69
2021/08/24 04:54:33;;;;;;;8.40;4.62;;;;;;;;;;4219103;33;20131;-70
2021/08/24 04:57:03;;;;;;;8.10;4.55;;;;;;;;;;4219218;33;20129;-70
2021/08/24 04:59:29;;;;;;;12.80;6.50;;;;;;;;;;4206149;34;20506;-70
2021/08/24 05:01:55;;;;;;;15.57;5.65;;;;;;;;;;4205988;33;20133;-70
2021/08/24 05:04:21;;;;;;;9.05;5.35;;;;;;;;;;4205736;34;20137;-70
2021/08/24 05:06:47;;;;;;;11.48;5.65;;;;;;;;;;4219042;33;20514;-70
2021/08/24 05:09:13;;;;;;;11.02;5.97;;;;;;;;;;4218755;33;20212;-68
2021/08/24 05:11:39;;;;;;;9.32;5.70;;;;;;;;;;4218866;34;20117;-67
2021/08/24 05:14:04;;;;;;;8.75;4.65;;;;;;;;;;4218972;33;20117;-67
2021/08/24 05:16:30;;;;;;;11.65;6.50;;;;;;;;;;4219164;34;20185;-67
2021/08/24 05:18:56;;;;;;;18.62;6.05;;;;;;;;;;4222533;33;20117;-67
2021/08/24 05:21:22;;;;;;;10.15;5.53;;;;;;;;;;4232960;33;20322;-68
2021/08/24 05:23:48;;;;;;;13.45;5.87;;;;;;;;;;4222936;33;20116;-68
2021/08/24 05:26:16;;;;;;;12.82;5.93;;;;;;;;;;4219006;34;20177;-68
2021/08/24 05:28:42;;;;;;;12.45;6.80;;;;;;;;;;4218376;33;20093;-69
2021/08/24 05:31:08;;;;;;;9.80;6.18;;;;;;;;;;4206098;34;20113;-67
2021/08/24 05:33:34;;;;;;;8.77;4.95;;;;;;;;;;4218748;33;20123;-67
2021/08/24 05:36:00;;;;;;;12.90;5.75;;;;;;;;;;4205595;34;20201;-70
2021/08/24 05:38:30;;;;;;;13.65;5.60;;;;;;;;;;4205889;34;20113;-70
2021/08/24 05:40:56;;;;;;;15.43;5.65;;;;;;;;;;4206122;34;20121;-70
2021/08/24 05:43:26;;;;;;;12.75;5.45;;;;;;;;;;4205706;34;20512;-70
2021/08/24 05:46:02;;;;;;;8.25;5.15;;;;;;;;;;4206181;34;20116;-70
2021/08/24 05:48:28;;;;;;;8.13;4.68;;;;;;;;;;4194267;34;20101;-70
2021/08/24 05:50:54;;;;;;;7.82;5.28;;;;;;;;;;4218631;34;20469;-70
2021/08/24 05:53:20;;;;;;;15.45;6.47;;;;;;;;;;4218344;33;20089;-70
2021/08/24 05:55:46;;;;;;;14.35;6.10;;;;;;;;;;4218681;34;20209;-70
2021/08/24 05:58:12;;;;;;;11.63;6.07;;;;;;;;;;4205308;34;20133;-70
2021/08/24 06:00:39;;;;;;;14.57;6.28;;;;;;;;;;4218329;34;20201;-71
2021/08/24 06:03:09;;;;;;;9.95;5.25;;;;;;;;;;4222464;33;20105;-67
2021/08/24 06:05:40;;;;;;;6.00;4.97;;;;;;;;;;4209444;33;20133;-67
2021/08/24 06:08:06;;;;;;;13.48;6.47;;;;;;;;;;4221356;33;20465;-67
2021/08/24 06:10:38;;;;;;;18.58;5.32;;;;;;;;;;4204842;34;20138;-68
2021/08/24 06:13:05;;;;;;;8.63;6.10;;;;;;;;;;4209158;34;20129;-67
2021/08/24 06:15:31;;;;;;;7.57;4.07;;;;;;;;;;4219551;34;20110;-67
2021/08/24 06:17:57;;;;;;;21.23;6.00;;;;;;;;;;4220237;33;20136;-67
2021/08/24 06:20:23;;;;;;;8.45;4.95;;;;;;;;;;4220563;34;20633;-67
2021/08/24 06:22:49;;;;;;;12.35;5.55;;;;;;;;;;4220314;33;20113;-67
2021/08/24 06:25:15;;;;;;;10.32;4.97;;;;;;;;;;4220517;34;20218;-68
2021/08/24 06:27:42;;;;;;;10.55;4.95;;;;;;;;;;4206755;33;20541;-72
2021/08/24 06:30:08;;;;;;;8.10;4.72;;;;;;;;;;4219496;33;20128;-70
2021/08/24 06:32:38;;;;;;;12.18;5.05;;;;;;;;;;4218308;33;20119;-71
2021/08/24 06:35:04;;;;;;;12.95;4.70;;;;;;;;;;4193624;34;20124;-70
2021/08/24 06:37:30;;;;;;;6.68;4.72;;;;;;;;;;4206055;34;20114;-71
2021/08/24 06:39:56;;;;;;;9.48;4.00;;;;;;;;;;4193745;34;20125;-71
2021/08/24 06:42:22;;;;;;;9.93;4.90;;;;;;;;;;4206222;34;20148;-69
2021/08/24 06:44:48;;;;;;;7.30;4.25;;;;;;;;;;4193614;34;20113;-68
2021/08/24 06:47:14;;;;;;;6.72;4.20;;;;;;;;;;4206380;34;20552;-71
2021/08/24 06:49:40;;;;;;;10.25;4.97;;;;;;;;;;4192376;34;20139;-70
2021/08/24 06:52:06;;;;;;;9.75;4.70;;;;;;;;;;4209825;33;20155;-70
2021/08/24 06:54:33;;;;;;;13.65;5.53;;;;;;;;;;4218661;33;20453;-65
2021/08/24 06:56:59;;;;;;;12.48;5.20;;;;;;;;;;4220122;33;20197;-64
2021/08/24 06:59:25;;;;;;;6.97;3.85;;;;;;;;;;4195019;34;20118;-66
2021/08/24 07:01:52;;;;;;;8.02;4.62;;;;;;;;;;4205933;34;20137;-67
2021/08/24 07:04:18;;;;;;;12.30;5.45;;;;;;;;;;4206359;34;20102;-66
2021/08/24 07:06:48;;;;;;;13.13;4.28;;;;;;;;;;4206290;34;20097;-66
2021/08/24 07:09:14;;;;;;;8.65;4.55;;;;;;;;;;4205891;34;20110;-66
2021/08/24 07:11:40;;;;;;;7.40;4.43;;;;;;;;;;4206190;34;20536;-66
2021/08/24 07:14:06;;;;;;;9.70;4.37;;;;;;;;;;4215953;33;20115;-68
2021/08/24 07:16:32;;;;;;;9.27;4.35;;;;;;;;;;4207241;34;20113;-68
2021/08/24 07:18:58;;;;;;;9.07;5.10;;;;;;;;;;4219723;33;20121;-66
2021/08/24 07:21:24;;;;;;;7.12;4.25;;;;;;;;;;4219970;34;20213;-67
2021/08/24 07:23:50;;;;;;;6.68;4.15;;;;;;;;;;4220095;33;20109;-67
2021/08/24 07:26:16;;;;;;;8.00;4.35;;;;;;;;;;4219594;34;20148;-67
2021/08/24 07:28:42;;;;;;;11.35;4.07;;;;;;;;;;4219690;33;20097;-68
2021/08/24 07:31:08;;;;;;;10.90;4.93;;;;;;;;;;4207148;34;20128;-68
2021/08/24 07:33:34;;;;;;;12.68;4.35;;;;;;;;;;4219693;33;20101;-64
2021/08/24 07:36:00;;;;;;;5.32;4.35;;;;;;;;;;4220040;34;20125;-67
2021/08/24 07:38:26;;;;;;;7.40;5.15;;;;;;;;;;4219416;33;20224;-69
2021/08/24 07:40:52;;;;;;;10.13;4.47;;;;;;;;;;4206891;34;20133;-66
2021/08/24 07:43:18;;;;;;;7.85;4.70;;;;;;;;;;4220154;33;20117;-67
2021/08/24 07:45:45;;;;;;;6.62;3.72;;;;;;;;;;4219953;34;20121;-67
2021/08/24 07:48:11;;;;;;;9.93;4.35;;;;;;;;;;4219877;33;20519;-67
2021/08/24 07:50:37;;;;;;;8.82;5.12;;;;;;;;;;4206570;34;20101;-68
2021/08/24 07:53:03;;;;;;;7.40;4.25;;;;;;;;;;4209295;34;20132;-69
2021/08/24 07:55:29;;;;;;;8.07;4.60;;;;;;;;;;4220214;34;20286;-68
2021/08/24 07:57:55;;;;;;;10.15;4.70;;;;;;;;;;4216255;33;20175;-68
2021/08/24 08:00:21;;;;;;;13.27;4.35;;;;;;;;;;4205667;34;20125;-68
2021/08/24 08:02:47;;;;;;;4.93;3.50;;;;;;;;;;4207703;33;20465;-68
2021/08/24 08:05:14;;;;;;;3.37;2.83;;;;;;;;;;4219852;34;20136;-67
2021/08/24 08:07:40;;;;;;;9.43;4.45;;;;;;;;;;4206822;33;20118;-68
2021/08/24 08:10:06;;;;;;;6.00;4.07;;;;;;;;;;4219327;34;20112;-68
2021/08/24 08:12:32;;;;;;;5.85;3.67;;;;;;;;;;4219734;33;20525;-68
2021/08/24 08:14:58;;;;;;;5.10;3.67;;;;;;;;;;4219401;34;20121;-67
2021/08/24 08:17:25;;;;;;;6.87;4.07;;;;;;;;;;4219165;33;20129;-67
2021/08/24 08:19:59;;;;;;;4.15;2.78;;;;;;;;;;4203948;33;20106;-68
2021/08/24 08:22:33;;;;;;;7.45;4.90;;;;;;;;;;4208455;33;20114;-66
2021/08/24 08:25:01;;;;;;;8.10;3.12;;;;;;;;;;4200665;34;20176;-69
2021/08/24 08:27:27;;;;;;;6.95;4.60;;;;;;;;;;4206236;34;20125;-67
2021/08/24 08:29:53;;;;;;;11.68;4.45;;;;;;;;;;4219371;34;20132;-67
2021/08/24 08:32:25;;;;;;;3.22;2.72;;;;;;;;;;4218961;33;20215;-67
2021/08/24 08:34:52;;;;;;;12.20;4.85;;;;;;;;;;4195526;34;20109;-67
2021/08/24 08:37:18;;;;;;;8.85;4.75;;;;;;;;;;4218743;33;20100;-66
2021/08/24 08:39:44;;;;;;;13.80;5.12;;;;;;;;;;4219481;34;20093;-67
2021/08/24 08:42:26;;;;;;;11.43;5.72;;;;;;;;;;4219673;33;20093;-72
2021/08/24 08:44:55;;;;;;;6.62;4.97;;;;;;;;;;4219410;34;20129;-70
2021/08/24 08:47:33;;;;;;;10.82;6.03;;;;;;;;;;4195249;34;20457;-68
2021/08/24 08:50:06;;;;;;;10.02;5.15;;;;;;;;;;4219277;34;20296;-67
2021/08/24 08:52:49;;;;;;;6.60;4.47;;;;;;;;;;4195308;34;20132;-68
2021/08/24 08:55:35;;;;;;;9.20;3.55;;;;;;;;;;4196015;34;20260;-68
2021/08/24 08:58:03;;;;;;;13.05;6.18;;;;;;;;;;4207604;34;20100;-70
2021/08/24 09:00:51;;;;;;;12.10;5.30;;;;;;;;;;4219225;34;20119;-68
2021/08/24 09:03:19;;;;;;;11.05;5.30;;;;;;;;;;4218179;34;20114;-68
2021/08/24 09:05:46;;;;;;;13.43;6.35;;;;;;;;;;4206433;34;20117;-67
2021/08/24 09:08:12;;;;;;;10.05;4.72;;;;;;;;;;4206240;34;20105;-68
2021/08/24 09:10:46;;;;;;;19.48;7.93;;;;;;;;;;4206238;34;20258;-68
2021/08/24 09:13:24;;;;;;;10.93;6.05;;;;;;;;;;4219176;34;20196;-68
2021/08/24 09:16:13;;;;;;;14.60;5.10;;;;;;;;;;4219174;34;20125;-67
2021/08/24 09:18:42;;;;;;;11.77;4.87;;;;;;;;;;4205778;34;20204;-68
2021/08/24 09:21:09;;;;;;;12.85;5.55;;;;;;;;;;4219366;34;20140;-69
2021/08/24 09:23:34;;;;;;;7.90;4.62;;;;;;;;;;4229478;33;20101;-70
2021/08/24 09:26:03;;;;;;;11.38;5.40;;;;;;;;;;4231697;33;20116;-69
2021/08/24 09:28:30;;;;;;;7.35;4.53;;;;;;;;;;4233058;33;20253;-68
2021/08/24 09:30:56;;;;;;;14.82;6.18;;;;;;;;;;4232870;33;20133;-67
2021/08/24 09:33:22;;;;;;;13.20;5.62;;;;;;;;;;4233353;33;20116;-67
2021/08/24 09:35:48;;;;;;;10.35;5.53;;;;;;;;;;4220228;33;20125;-67
2021/08/24 09:38:25;;;;;;;12.27;5.28;;;;;;;;;;4233012;33;20522;-69
2021/08/24 09:40:52;;;;;;;13.65;5.57;;;;;;;;;;4231775;33;20124;-69
2021/08/24 09:43:20;;;;;;;5.47;3.90;;;;;;;;;;4232761;33;20097;-68
2021/08/24 09:45:46;;;;;;;7.97;4.30;;;;;;;;;;4232706;33;20204;-69
2021/08/24 09:48:12;;;;;;;8.38;4.97;;;;;;;;;;4232740;33;20210;-67
2021/08/24 09:50:42;;;;;;;8.13;4.62;;;;;;;;;;4232692;33;20125;-68
2021/08/24 09:53:26;;;;;;;10.23;5.30;;;;;;;;;;4232633;33;20129;-68
2021/08/24 09:55:52;;;;;;;10.48;5.03;;;;;;;;;;4219729;33;20110;-68
2021/08/24 09:58:47;;;;;;;8.93;5.35;;;;;;;;;;4194860;34;20208;-69
2021/08/24 10:01:14;;;;;;;7.18;4.37;;;;;;;;;;4196870;34;20105;-68
2021/08/24 10:03:47;;;;;;;7.30;4.70;;;;;;;;;;4194314;34;20189;-68
2021/08/24 10:06:19;;;;;;;9.52;6.05;;;;;;;;;;4206158;34;20513;-68
2021/08/24 10:08:45;;;;;;;10.90;5.10;;;;;;;;;;4218708;33;20113;-67
2021/08/24 10:11:14;;;;;;;13.70;5.43;;;;;;;;;;4218537;34;20114;-66
2021/08/24 10:13:42;;;;;;;9.75;4.85;;;;;;;;;;4218502;33;20092;-67
2021/08/24 10:16:27;;;;;;;12.13;5.62;;;;;;;;;;4218611;34;20120;-67
2021/08/24 10:19:05;;;;;;;8.32;3.80;;;;;;;;;;4218378;33;20213;-68
2021/08/24 10:21:44;;;;;;;6.95;4.32;;;;;;;;;;4218549;34;20110;-68
2021/08/24 10:24:13;;;;;;;12.98;4.35;;;;;;;;;;4205438;33;20203;-67
2021/08/24 10:26:39;;;;;;;12.52;4.72;;;;;;;;;;4219806;33;20117;-69
2021/08/24 10:29:09;;;;;;;6.68;3.75;;;;;;;;;;4207849;33;20113;-69
2021/08/24 10:31:36;;;;;;;9.75;4.18;;;;;;;;;;4219722;33;20101;-69
2021/08/24 10:34:26;;;;;;;7.47;4.30;;;;;;;;;;4232346;33;20117;-69
2021/08/24 10:36:53;;;;;;;6.55;4.10;;;;;;;;;;4226714;33;20136;-69
2021/08/24 10:39:22;;;;;;;8.10;4.22;;;;;;;;;;4219345;33;20227;-69
2021/08/24 10:42:07;;;;;;;10.07;4.37;;;;;;;;;;4232101;33;20517;-69
2021/08/24 10:44:52;;;;;;;11.60;4.15;;;;;;;;;;4232255;33;20117;-69
2021/08/24 10:47:21;;;;;;;;;;;;;;;;;;4232494;33;20430;-70
2021/08/24 10:49:47;;;;;;;9.30;4.68;;;;;;;;;;4232099;33;19992;-69
2021/08/24 10:52:44;;;;;;;8.13;4.28;;;;;;;;;;4232078;33;20989;-68
2021/08/24 10:55:15;;;;;;;10.50;4.30;;;;;;;;;;4214130;33;20113;-68
2021/08/24 10:57:59;;;;;;;9.38;3.97;;;;;;;;;;4232095;33;20124;-68
2021/08/24 11:00:30;;;;;;;5.95;4.30;;;;;;;;;;4232248;33;20102;-68
2021/08/24 11:03:22;;;;;;;5.85;4.12;;;;;;;;;;4221232;33;20120;-68
2021/08/24 11:05:49;;;;;;;7.12;3.70;;;;;;;;;;4221236;33;20532;-68
2021/08/24 11:08:27;;;;;;;8.25;3.70;;;;;;;;;;4221084;33;20208;-68
2021/08/24 11:10:59;;;;;;;5.28;3.67;;;;;;;;;;4234221;33;20224;-68
2021/08/24 11:13:48;;;;;;;7.03;4.28;;;;;;;;;;4234211;33;20612;-68
2021/08/24 11:16:24;;;;;;;10.77;4.00;;;;;;;;;;4221398;33;20104;-68
2021/08/24 11:18:51;;;;;;;8.45;3.95;;;;;;;;;;4221166;33;20113;-70
2021/08/24 11:21:30;;;;;;;12.05;3.70;;;;;;;;;;4209609;33;20125;-68
2021/08/24 11:24:11;;;;;;;3.85;3.45;;;;;;;;;;4234081;33;20192;-69
2021/08/24 11:26:54;;;;;;;5.75;3.58;;;;;;;;;;4234118;33;20137;-69
2021/08/24 11:29:26;;;;;;;8.90;4.00;;;;;;;;;;4222514;33;20108;-70
2021/08/24 11:31:57;;;;;;;9.52;3.75;;;;;;;;;;4233882;33;20216;-70
2021/08/24 11:34:26;;;;;;;9.95;4.00;;;;;;;;;;4209906;33;20131;-69
2021/08/24 11:37:05;;;;;;;8.82;4.12;;;;;;;;;;4220767;33;20119;-69
2021/08/24 11:39:55;;;;;;;10.82;5.00;;;;;;;;;;4234237;33;20097;-68
2021/08/24 11:42:44;;;;;;;9.60;4.35;;;;;;;;;;4233840;33;20105;-73
2021/08/24 11:45:20;;;;;;;12.80;5.15;;;;;;;;;;4234063;33;20140;-68
2021/08/24 11:48:07;;;;;;;7.70;4.45;;;;;;;;;;4220949;33;20093;-69
2021/08/24 11:50:49;;;;;;;10.85;3.92;;;;;;;;;;4233700;33;20609;-68
2021/08/24 11:53:30;;;;;;;5.87;3.70;;;;;;;;;;4220922;33;20116;-68
2021/08/24 11:55:58;;;;;;;7.62;3.92;;;;;;;;;;4220772;33;20092;-68
2021/08/24 11:58:54;;;;;;;9.63;4.07;;;;;;;;;;4216894;33;20120;-68
2021/08/24 12:01:21;;;;;;;7.82;4.70;;;;;;;;;;4231331;33;20137;-69
2021/08/24 12:03:50;;;;;;;9.55;4.10;;;;;;;;;;4210827;33;20116;-69
2021/08/24 12:06:22;;;;;;;8.55;4.32;;;;;;;;;;4195283;34;20477;-68
2021/08/24 12:08:53;;;;;;;13.23;4.10;;;;;;;;;;4195251;34;20530;-70
2021/08/24 12:11:38;;;;;;;10.65;4.28;;;;;;;;;;4195208;34;20113;-68
2021/08/24 12:14:26;;;;;;;6.60;3.75;;;;;;;;;;4219370;33;20209;-68
2021/08/24 12:17:14;;;;;;;6.53;3.87;;;;;;;;;;4219727;33;20097;-68
2021/08/24 12:19:50;;;;;;;6.57;4.05;;;;;;;;;;4219854;34;20093;-69
2021/08/24 12:22:16;;;;;;;9.98;3.85;;;;;;;;;;4205280;33;20125;-68
2021/08/24 12:24:57;;;;;;;7.25;4.82;;;;;;;;;;4219214;33;20151;-68
2021/08/24 12:27:56;;;;;;;9.48;4.70;;;;;;;;;;4195390;33;20160;-69
2021/08/24 12:30:25;;;;;;;6.87;4.10;;;;;;;;;;4219399;34;20217;-67
2021/08/24 12:32:51;;;;;;;13.02;4.62;;;;;;;;;;4218901;33;20309;-68
2021/08/24 12:35:41;;;;;;;11.98;4.70;;;;;;;;;;4219456;34;20204;-68
2021/08/24 12:38:08;;;;;;;7.62;3.75;;;;;;;;;;4219077;33;20176;-69
2021/08/24 12:40:53;;;;;;;7.18;4.10;;;;;;;;;;4206493;34;20220;-69
2021/08/24 12:43:19;;;;;;;9.52;4.28;;;;;;;;;;4218890;33;20103;-69
2021/08/24 12:45:45;;;;;;;10.80;4.40;;;;;;;;;;4219370;34;20117;-68
2021/08/24 12:48:15;;;;;;;11.27;4.37;;;;;;;;;;4205988;34;20193;-69
2021/08/24 12:51:03;;;;;;;8.43;4.87;;;;;;;;;;4219186;34;20101;-68
2021/08/24 12:53:29;;;;;;;6.50;3.15;;;;;;;;;;4219276;33;20093;-68
2021/08/24 12:56:01;;;;;;;10.85;2.85;;;;;;;;;;4219187;34;20137;-68
2021/08/24 12:58:32;;;;;;;7.85;2.80;;;;;;;;;;4206097;34;20108;-68
2021/08/24 13:01:14;;;;;;;5.87;3.50;;;;;;;;;;4218945;34;20121;-68
2021/08/24 13:04:06;;;;;;;9.98;4.00;;;;;;;;;;4218820;33;20085;-68
2021/08/24 13:06:35;;;;;;;6.40;3.62;;;;;;;;;;4219231;34;20116;-68
2021/08/24 13:09:21;;;;;;;12.57;4.50;;;;;;;;;;4218292;33;20169;-68
2021/08/24 13:12:13;;;;;;;7.03;4.00;;;;;;;;;;4218923;33;20173;-68
2021/08/24 13:14:56;;;;;;;9.32;4.95;;;;;;;;;;4205296;34;20192;-68
2021/08/24 13:17:30;;;;;;;15.50;6.32;;;;;;;;;;4206559;33;20129;-68
2021/08/24 13:19:57;;;;;;;9.83;5.37;;;;;;;;;;4206404;34;20453;-68
2021/08/24 13:22:30;;;;;;;9.90;5.12;;;;;;;;;;4206085;33;20525;-69
2021/08/24 13:24:55;;;;;;;8.25;3.95;;;;;;;;;;4219398;33;20098;-68
2021/08/24 13:27:27;;;;;;;7.70;4.32;;;;;;;;;;4231108;33;20119;-69
2021/08/24 13:29:53;;;;;;;9.13;3.65;;;;;;;;;;4195009;34;20113;-68
2021/08/24 13:32:25;;;;;;;10.57;4.70;;;;;;;;;;4205775;33;20106;-68
2021/08/24 13:34:53;;;;;;;9.55;4.55;;;;;;;;;;4206052;34;20128;-68
2021/08/24 13:37:38;;;;;;;8.50;2.75;;;;;;;;;;4218284;33;20109;-68
2021/08/24 13:40:07;;;;;;;7.60;3.72;;;;;;;;;;4218905;34;20094;-68
2021/08/24 13:42:46;;;;;;;4.78;3.60;;;;;;;;;;4218743;33;20105;-68
2021/08/24 13:45:32;;;;;;;7.32;4.00;;;;;;;;;;4195216;34;20200;-68
2021/08/24 13:47:59;;;;;;;5.03;3.85;;;;;;;;;;4194431;34;20106;-70
2021/08/24 13:50:34;;;;;;;9.13;3.97;;;;;;;;;;4194525;34;20105;-69
2021/08/24 13:53:14;;;;;;;6.22;3.47;;;;;;;;;;4206298;34;20149;-69
2021/08/24 13:55:41;;;;;;;7.07;3.25;;;;;;;;;;4218623;34;20204;-68
2021/08/24 13:58:32;;;;;;;6.03;3.65;;;;;;;;;;4218683;33;20126;-68
2021/08/24 14:01:21;;;;;;;4.80;3.20;;;;;;;;;;4218705;34;20111;-68
2021/08/24 14:03:52;;;;;;;5.80;4.32;;;;;;;;;;4218505;33;20601;-68
2021/08/24 14:06:30;;;;;;;6.25;3.97;;;;;;;;;;4205813;34;20098;-69
2021/08/24 14:08:57;;;;;;;6.97;2.85;;;;;;;;;;4205765;34;20117;-69
2021/08/24 14:11:23;;;;;;;3.83;3.37;;;;;;;;;;4194192;34;20187;-68
2021/08/24 14:13:49;;;;;;;5.62;3.03;;;;;;;;;;4218566;33;20104;-69
2021/08/24 14:16:27;;;;;;;12.40;4.37;;;;;;;;;;4218359;34;20110;-69
2021/08/24 14:18:54;;;;;;;4.90;2.97;;;;;;;;;;4206291;34;20137;-68
2021/08/24 14:21:20;;;;;;;9.60;4.87;;;;;;;;;;4218648;34;20133;-69
2021/08/24 14:23:45;;;;;;;3.72;2.42;;;;;;;;;;4213439;33;20517;-68
2021/08/24 14:26:19;;;;;;;19.20;4.30;;;;;;;;;;4232375;33;20112;-68
2021/08/24 14:28:45;;;;;;;15.60;4.65;;;;;;;;;;4232167;33;20100;-68
2021/08/24 14:31:33;;;;;;;8.35;3.67;;;;;;;;;;4219331;33;20240;-68
2021/08/24 14:34:17;;;;;;;4.40;3.25;;;;;;;;;;4232547;33;20121;-64
2021/08/24 14:36:44;;;;;;;4.68;3.50;;;;;;;;;;4221055;33;20429;-64
2021/08/24 14:39:13;;;;;;;4.97;2.78;;;;;;;;;;4221611;33;20227;-64
2021/08/24 14:41:50;;;;;;;5.85;3.60;;;;;;;;;;4209429;33;20469;-64
2021/08/24 14:44:20;;;;;;;11.30;4.35;;;;;;;;;;4234779;33;20093;-64
2021/08/24 14:46:52;;;;;;;5.35;3.78;;;;;;;;;;4210314;33;20125;-64
2021/08/24 14:49:46;;;;;;;6.60;3.55;;;;;;;;;;4234461;33;20120;-63
2021/08/24 14:52:18;;;;;;;10.25;3.60;;;;;;;;;;4221310;33;20131;-64
2021/08/24 14:55:13;;;;;;;4.10;3.25;;;;;;;;;;4234416;33;20128;-64
2021/08/24 14:57:59;;;;;;;8.10;3.80;;;;;;;;;;4226841;33;20607;-63
2021/08/24 15:00:27;;;;;;;7.32;3.42;;;;;;;;;;4234329;33;20184;-64
2021/08/24 15:03:01;;;;;;;7.07;3.55;;;;;;;;;;4234113;33;20101;-63
2021/08/24 15:05:40;;;;;;;16.73;4.72;;;;;;;;;;4221868;33;20100;-63
2021/08/24 15:08:12;;;;;;;12.30;4.22;;;;;;;;;;4234021;33;20121;-63
2021/08/24 15:11:01;;;;;;;7.53;3.58;;;;;;;;;;4234303;33;20151;-65
2021/08/24 15:13:51;;;;;;;5.32;3.70;;;;;;;;;;4234266;33;20125;-63
2021/08/24 15:16:21;;;;;;;3.42;2.45;;;;;;;;;;4219782;33;20120;-64
2021/08/24 15:18:52;;;;;;;2.92;2.65;;;;;;;;;;4209531;33;20137;-65
2021/08/24 15:21:27;;;;;;;4.97;3.47;;;;;;;;;;4209837;33;20590;-66